Startbyn, Sweden

5:49 AM CEST on August 23, 2014 (GMT +0200)
Kallax Air Base | Change Station
CLOSE
Current Station
Airport
Location: Lulea-Kallax,
Elevation: 112 ft
Nearby Weather Stations

Elev 112 ft 65.54 °N, 22.12 °E | Updated 29 minutes ago

Overcast
Overcast
50 °F
Feels Like 50 °F
N
8
Wind Variable Wind from North

Today
High -- | Low -- °F
--% Chance of Precip.
Yesterday
High -- | Low -- °F
Precip. -- in
4:31 AM 8:28 PM
Waning Crescent, 5% visible
Pressure 29.68 in
Visibility 6.2 miles
Clouds Overcast 700 ft
Dew Point 48 °F
Humidity 94%
Rainfall 0.00 in
Snow Depth Not available.
UV 0 out of 12
Pollen Not available.
Air Quality Not available.
Flu Activity Not available.
METAR ESPA 230320Z AUTO 35007KT 320V020 9999NDV OVC007/// 10/09 Q1005

More Conditions Fewer Conditions

Pressure 29.68 in
Visibility 6.2 miles
Clouds Overcast 700 ft
Dew Point 48 °F
Humidity 94%
Rainfall 0.00 in
Snow Depth Not available.
UV 0 out of 12
Pollen Not available.
Air Quality Not available.
Flu Activity Not available.
METAR ESPA 230320Z AUTO 35007KT 320V020 9999NDV OVC007/// 10/09 Q1005

More Conditions Fewer Conditions

10-Day Weather Forecast

Almanac

Astronomy

Aug. 23, 2014 Rise Set
Actual Time 4:31 AM CEST 8:28 PM CEST
Civil Twilight 3:24 AM CEST 9:34 PM CEST
Nautical Twilight 12:59 AM CEST 11:43 PM CEST
Astronomical Twilight Sun does not rise Sun does not rise
Moon 2:06 AM CEST 7:11 PM CEST
Length of Visible Light 18h 10m
Length of Day
15h 57m
Tomorrow will be 7m 25s shorter.
Waning Crescent, 5% of the Moon is Illuminated
Aug 22
Waning Crescent
Aug 25
New
Sep 2
First Quarter
Sep 8
Full
Sep 15
Last Quarter

Yesterday's Extremes

Country Highs Country Lows

Community

WunderPhotos

Upload Photos

1,746,352 photos uploaded!

WunderBlogs® & News

Nearby

Snow Depth

Not available.

Earthquake Activity

City Distance Mag. Time & Date
No recent earthquake activity has been reported nearby.
Minimum magnitude displayed is 2.5.

Coastal Water Temperatures

Place Temperature
No Stations Reporting

Nearby Weather Stations